Time;durP1;ratioP1;P1;durP2;ratioP2;P2;SDS_P1;SDS_P2;PMS_P1;PMS_P2;Temp;Humidity;BMP_temperature;BMP_pressure;BME280_temperature;BME280_humidity;BME280_pressure;Samples;Min_cycle;Max_cycle;Signal;HPM_P1;HPM_P2
2023/09/16 00:02:00;;;;;;;5.80;3.63;;;25.10;91.70;;;;;;4950225;28;20561;-85
2023/09/16 00:04:31;;;;;;;5.20;3.80;;;25.20;90.30;;;;;;4956270;29;20204;-84
2023/09/16 00:07:02;;;;;;;4.53;3.80;;;25.50;90.30;;;;;;4965629;28;20214;-84
2023/09/16 00:09:33;;;;;;;8.88;3.97;;;25.70;87.40;;;;;;4973649;29;20224;-86
2023/09/16 00:12:04;;;;;;;6.30;3.60;;;25.90;86.60;;;;;;4957254;29;20204;-85
2023/09/16 00:14:36;;;;;;;5.22;4.00;;;26.10;82.50;;;;;;4957013;29;20200;-85
2023/09/16 00:17:10;;;;;;;4.95;3.28;;;26.20;77.90;;;;;;4955569;29;20239;-85
2023/09/16 00:19:41;;;;;;;3.75;3.30;;;26.20;76.70;;;;;;4944702;29;20247;-88
2023/09/16 00:22:13;;;;;;;4.93;3.60;;;26.30;75.60;;;;;;4957793;29;20193;-88
2023/09/16 00:24:44;;;;;;;5.05;3.63;;;26.50;75.80;;;;;;4954681;29;20210;-88
2023/09/16 00:27:14;;;;;;;5.55;4.00;;;26.70;74.20;;;;;;4949490;29;20199;-89
2023/09/16 00:29:45;;;;;;;6.85;4.07;;;26.70;72.30;;;;;;4958039;29;20552;-89
2023/09/16 00:32:18;;;;;;;6.63;4.13;;;26.90;72.50;;;;;;4945495;29;20207;-88
2023/09/16 00:34:49;;;;;;;4.20;3.60;;;27.00;71.80;;;;;;4957317;29;20608;-89
2023/09/16 00:37:19;;;;;;;4.75;3.70;;;27.20;70.80;;;;;;4957033;29;20707;-89
2023/09/16 00:39:50;;;;;;;6.78;3.72;;;27.30;69.90;;;;;;4957465;29;20201;-88
2023/09/16 00:42:21;;;;;;;8.10;4.13;;;27.30;69.60;;;;;;4953512;29;20201;-89
2023/09/16 00:44:52;;;;;;;4.68;3.40;;;27.50;70.00;;;;;;4946624;29;20215;-89
2023/09/16 00:47:24;;;;;;;7.47;3.70;;;27.60;61.60;;;;;;4958898;29;20214;-89
2023/09/16 00:49:55;;;;;;;8.45;4.70;;;27.70;62.30;;;;;;4956829;29;20211;-90
2023/09/16 00:52:26;;;;;;;6.78;4.07;;;27.70;66.60;;;;;;4938147;29;20275;-89
2023/09/16 00:54:56;;;;;;;6.60;4.32;;;27.80;67.20;;;;;;4937235;29;20208;-90
2023/09/16 00:57:27;;;;;;;8.90;4.25;;;28.00;65.70;;;;;;4947934;28;20242;-89
2023/09/16 00:59:58;;;;;;;6.13;3.92;;;28.10;66.00;;;;;;4954089;29;20192;-90
2023/09/16 01:02:32;;;;;;;5.22;4.10;;;28.20;64.80;;;;;;4937871;29;20225;-90
2023/09/16 01:05:04;;;;;;;8.45;4.50;;;28.30;63.30;;;;;;4937868;29;20577;-90
2023/09/16 01:07:35;;;;;;;7.85;4.72;;;28.20;62.90;;;;;;4939450;28;20283;-89
2023/09/16 01:10:06;;;;;;;8.65;4.22;;;28.40;65.40;;;;;;4973119;28;20199;-89
2023/09/16 01:12:37;;;;;;;8.65;4.68;;;28.40;64.70;;;;;;4956639;29;20185;-89
2023/09/16 01:15:10;;;;;;;5.72;3.95;;;28.50;64.10;;;;;;4970323;28;20689;-92
2023/09/16 01:17:50;;;;;;;7.70;4.70;;;28.60;61.20;;;;;;4956238;29;20675;-89
2023/09/16 01:20:23;;;;;;;7.88;4.20;;;28.60;60.90;;;;;;4938893;29;20199;-90
2023/09/16 01:22:54;;;;;;;6.07;4.10;;;28.70;61.40;;;;;;4945604;29;20236;-89
2023/09/16 01:25:28;;;;;;;4.30;3.33;;;28.80;61.00;;;;;;4937272;29;20296;-90
2023/09/16 01:27:59;;;;;;;5.63;3.97;;;28.90;59.20;;;;;;4941353;29;20200;-90
2023/09/16 01:30:31;;;;;;;5.60;3.53;;;28.90;58.30;;;;;;4942837;29;20206;-85
2023/09/16 01:33:07;;;;;;;6.45;3.88;;;28.90;57.90;;;;;;4943449;29;20196;-86
2023/09/16 01:35:40;;;;;;;7.03;3.67;;;29.00;57.70;;;;;;4935027;29;20244;-86
2023/09/16 01:38:14;;;;;;;5.78;3.80;;;29.20;57.30;;;;;;4935616;29;20220;-87
2023/09/16 01:40:48;;;;;;;9.30;4.07;;;29.30;56.10;;;;;;4935185;29;20211;-87
2023/09/16 01:43:19;;;;;;;6.13;4.10;;;29.40;55.80;;;;;;4939620;29;20576;-87
2023/09/16 01:45:50;;;;;;;5.93;3.90;;;29.50;56.60;;;;;;4939663;29;20208;-86
2023/09/16 01:48:21;;;;;;;7.82;3.90;;;29.60;56.00;;;;;;4952432;29;20203;-88
2023/09/16 01:50:52;;;;;;;7.55;3.40;;;29.50;56.80;;;;;;4956378;29;20200;-88
2023/09/16 01:53:23;;;;;;;6.97;3.72;;;29.60;56.00;;;;;;4948058;29;20204;-88
2023/09/16 01:55:55;;;;;;;8.82;3.63;;;29.70;54.20;;;;;;4952507;29;20583;-88
2023/09/16 01:58:26;;;;;;;8.73;3.35;;;29.70;54.70;;;;;;4954938;29;20199;-88
2023/09/16 02:00:57;;;;;;;6.50;3.83;;;29.70;54.80;;;;;;4956412;29;20247;-88
2023/09/16 02:03:28;;;;;;;8.13;3.30;;;29.80;54.40;;;;;;4951410;29;20200;-89
2023/09/16 02:05:58;;;;;;;7.60;3.55;;;29.90;54.50;;;;;;4964091;28;20212;-88
2023/09/16 02:08:31;;;;;;;5.63;3.65;;;30.00;51.90;;;;;;4954997;29;20200;-88
2023/09/16 02:11:04;;;;;;;11.55;4.20;;;30.20;52.30;;;;;;4955522;29;20638;-88
2023/09/16 02:13:35;;;;;;;8.80;3.30;;;30.30;52.10;;;;;;4954927;29;20574;-89
2023/09/16 02:16:07;;;;;;;5.07;3.03;;;30.40;51.20;;;;;;4945437;29;20564;-89
2023/09/16 02:18:37;;;;;;;5.20;3.20;;;30.50;51.00;;;;;;4957041;29;20176;-88
2023/09/16 02:21:09;;;;;;;7.10;3.30;;;30.70;50.40;;;;;;4953346;29;20657;-88
2023/09/16 02:23:40;;;;;;;4.85;2.97;;;30.80;50.40;;;;;;4937299;29;20205;-88
2023/09/16 02:26:13;;;;;;;7.63;3.28;;;30.90;49.20;;;;;;4951731;29;20564;-88
2023/09/16 02:28:57;;;;;;;4.38;2.92;;;31.00;50.80;;;;;;5110048;27;20521;-88
2023/09/16 02:31:28;;;;;;;9.25;3.25;;;31.10;50.90;;;;;;5102924;28;20186;-88
2023/09/16 02:34:00;;;;;;;5.38;2.40;;;31.20;48.20;;;;;;5110328;28;20527;-88
2023/09/16 02:36:31;;;;;;;4.93;2.67;;;31.30;46.90;;;;;;5094056;28;20195;-88
2023/09/16 02:39:04;;;;;;;6.97;2.95;;;31.50;47.70;;;;;;5089626;28;20190;-89
2023/09/16 02:41:35;;;;;;;5.80;2.78;;;31.60;49.70;;;;;;5089980;28;20195;-85
2023/09/16 02:44:07;;;;;;;6.72;2.90;;;31.70;49.40;;;;;;5110011;28;20575;-89
2023/09/16 02:46:39;;;;;;;5.60;2.97;;;31.70;49.50;;;;;;5105242;28;20191;-90
2023/09/16 02:49:09;;;;;;;6.03;3.00;;;31.80;49.40;;;;;;5089254;28;20210;-88
2023/09/16 02:51:40;;;;;;;10.25;3.03;;;31.70;51.00;;;;;;5091582;28;20199;-89
2023/09/16 02:54:11;;;;;;;4.82;2.70;;;31.80;50.50;;;;;;5109209;28;20199;-89
2023/09/16 02:56:41;;;;;;;4.53;2.58;;;31.90;50.80;;;;;;5105480;28;20227;-89
2023/09/16 02:59:15;;;;;;;5.10;2.30;;;31.80;50.10;;;;;;5090196;28;20188;-92
2023/09/16 03:01:46;;;;;;;5.85;2.20;;;31.90;49.50;;;;;;5100858;28;20680;-88
2023/09/16 03:04:17;;;;;;;3.42;2.40;;;32.10;44.90;;;;;;5109612;28;20198;-90
2023/09/16 03:06:52;;;;;;;6.97;1.90;;;32.20;45.20;;;;;;5109407;28;20195;-89
2023/09/16 03:09:23;;;;;;;4.22;2.20;;;32.30;43.90;;;;;;5105284;28;20217;-88
2023/09/16 03:11:54;;;;;;;5.90;2.03;;;32.40;42.90;;;;;;5088923;28;20191;-89
2023/09/16 03:14:26;;;;;;;5.97;1.70;;;32.40;41.30;;;;;;5089570;28;20195;-89
2023/09/16 03:16:57;;;;;;;6.68;1.85;;;32.50;41.90;;;;;;5107510;28;20213;-87
2023/09/16 03:19:28;;;;;;;2.90;1.60;;;32.60;40.10;;;;;;5109788;28;20252;-89
2023/09/16 03:21:59;;;;;;;2.92;1.50;;;32.70;37.80;;;;;;5092107;28;20192;-89
2023/09/16 03:24:30;;;;;;;3.58;1.33;;;32.80;37.30;;;;;;5105537;28;20179;-89
2023/09/16 03:27:01;;;;;;;3.25;1.80;;;33.00;37.30;;;;;;5120435;28;20693;-88
2023/09/16 03:29:34;;;;;;;3.00;1.80;;;33.10;37.40;;;;;;5110384;28;20194;-89
2023/09/16 03:32:05;;;;;;;2.53;1.40;;;33.00;39.90;;;;;;5110009;28;20198;-90
2023/09/16 03:34:36;;;;;;;3.35;1.90;;;33.10;39.20;;;;;;5107950;28;20202;-90
2023/09/16 03:37:07;;;;;;;2.15;1.50;;;33.20;38.30;;;;;;5110492;28;20198;-90
2023/09/16 03:39:38;;;;;;;2.92;1.60;;;33.20;38.00;;;;;;5099229;28;20198;-87
2023/09/16 03:42:09;;;;;;;2.15;1.20;;;33.20;36.10;;;;;;5088946;28;20257;-89
2023/09/16 03:44:42;;;;;;;3.70;1.73;;;33.10;34.30;;;;;;5094397;28;20210;-88
2023/09/16 03:47:13;;;;;;;1.40;1.30;;;33.20;35.10;;;;;;5095753;28;20225;-87
2023/09/16 03:49:50;;;;;;;1.90;1.60;;;33.20;34.40;;;;;;5096104;28;20184;-88
2023/09/16 03:52:22;;;;;;;2.42;1.40;;;33.10;34.00;;;;;;5082139;28;20303;-90
2023/09/16 03:54:52;;;;;;;1.48;1.33;;;33.00;33.10;;;;;;5086894;28;20207;-88
2023/09/16 03:57:23;;;;;;;2.22;1.40;;;32.90;34.10;;;;;;5078594;28;20204;-90
2023/09/16 03:59:56;;;;;;;1.58;1.45;;;32.90;33.40;;;;;;5077991;28;20216;-88
2023/09/16 04:02:26;;;;;;;1.70;1.33;;;32.90;33.70;;;;;;5079379;28;20192;-88
2023/09/16 04:04:57;;;;;;;5.47;1.70;;;32.90;33.20;;;;;;5086618;28;20200;-88
2023/09/16 04:07:28;;;;;;;2.10;1.70;;;32.80;37.40;;;;;;5087674;28;20219;-88
2023/09/16 04:09:58;;;;;;;3.53;1.42;;;32.60;38.50;;;;;;5081996;28;20214;-89
2023/09/16 04:12:29;;;;;;;4.47;1.63;;;32.50;34.30;;;;;;5093001;28;20206;-89
2023/09/16 04:15:02;;;;;;;2.28;1.63;;;32.40;34.40;;;;;;5094121;28;20199;-89
2023/09/16 04:17:33;;;;;;;3.42;1.50;;;32.50;34.20;;;;;;5082659;28;20231;-88
2023/09/16 04:20:06;;;;;;;2.28;1.70;;;32.50;34.00;;;;;;5093200;28;20677;-86
2023/09/16 04:22:38;;;;;;;3.78;1.50;;;32.50;33.40;;;;;;5094097;28;20199;-86
2023/09/16 04:25:09;;;;;;;1.67;1.50;;;32.50;33.40;;;;;;5093517;28;20693;-86
2023/09/16 04:27:40;;;;;;;1.83;1.60;;;32.40;33.20;;;;;;5082363;28;20239;-86
2023/09/16 04:30:15;;;;;;;2.22;1.40;;;32.40;33.10;;;;;;5089868;28;20187;-87
2023/09/16 04:32:45;;;;;;;4.28;1.40;;;32.50;32.60;;;;;;5082858;28;20201;-86
2023/09/16 04:35:17;;;;;;;3.10;1.83;;;32.50;32.80;;;;;;5074366;28;20200;-86
2023/09/16 04:37:48;;;;;;;8.20;1.70;;;32.50;32.10;;;;;;5073631;28;20274;-86
2023/09/16 04:40:20;;;;;;;6.65;1.77;;;32.50;31.40;;;;;;5073577;28;20202;-86
2023/09/16 04:42:52;;;;;;;3.00;1.80;;;32.60;31.50;;;;;;5073297;28;20206;-86
2023/09/16 04:45:25;;;;;;;3.78;2.00;;;32.60;28.90;;;;;;5073295;28;20202;-87
2023/09/16 04:48:00;;;;;;;2.40;1.60;;;32.60;29.30;;;;;;5073269;28;20231;-87
2023/09/16 04:50:34;;;;;;;2.80;1.60;;;32.70;28.70;;;;;;5089570;28;20187;-87
2023/09/16 04:53:10;;;;;;;4.70;1.75;;;32.70;28.20;;;;;;5093464;28;20666;-87
2023/09/16 04:55:42;;;;;;;2.30;1.50;;;32.70;27.70;;;;;;5093179;28;20728;-85
2023/09/16 04:58:13;;;;;;;3.78;1.88;;;32.70;27.70;;;;;;5086686;28;20261;-86
2023/09/16 05:00:48;;;;;;;6.90;4.05;;;32.70;27.60;;;;;;5075940;28;20196;-84
2023/09/16 05:03:20;;;;;;;3.08;1.83;;;32.70;27.50;;;;;;5073558;28;20245;-86
2023/09/16 05:05:51;;;;;;;2.17;1.70;;;32.70;27.70;;;;;;5072591;28;20204;-87
2023/09/16 05:08:22;;;;;;;2.00;1.70;;;32.70;27.70;;;;;;5074562;28;20231;-86
2023/09/16 05:10:57;;;;;;;2.75;1.70;;;32.80;27.80;;;;;;5074264;28;20184;-87
2023/09/16 05:13:28;;;;;;;4.22;1.85;;;32.90;28.30;;;;;;5093999;28;20201;-88
2023/09/16 05:16:01;;;;;;;4.50;1.60;;;32.80;27.80;;;;;;5095076;28;20199;-88
2023/09/16 05:18:32;;;;;;;5.05;1.70;;;32.80;28.00;;;;;;5087904;28;20275;-87
2023/09/16 05:21:03;;;;;;;2.20;1.38;;;32.70;28.20;;;;;;5074476;28;20196;-87
2023/09/16 05:23:34;;;;;;;4.00;1.90;;;32.70;28.50;;;;;;5076233;28;20248;-87
2023/09/16 05:26:06;;;;;;;3.92;1.73;;;32.80;28.20;;;;;;5083351;28;20203;-87
2023/09/16 05:28:37;;;;;;;3.47;1.75;;;32.90;28.30;;;;;;5086042;28;20240;-87
2023/09/16 05:31:09;;;;;;;3.65;1.55;;;33.00;28.60;;;;;;5092261;28;20203;-87
2023/09/16 05:33:40;;;;;;;2.05;1.73;;;33.00;28.30;;;;;;5093957;28;20203;-87
2023/09/16 05:36:11;;;;;;;3.80;1.67;;;33.10;28.40;;;;;;5116334;28;20193;-88
2023/09/16 05:38:43;;;;;;;2.50;1.80;;;33.20;28.90;;;;;;5085614;28;20192;-88
2023/09/16 05:41:14;;;;;;;3.25;1.80;;;33.20;28.80;;;;;;5074377;28;20685;-88
2023/09/16 05:43:45;;;;;;;2.17;1.50;;;33.30;28.10;;;;;;5089081;28;20207;-88
2023/09/16 05:46:27;;;;;;;2.72;1.73;;;33.20;28.00;;;;;;5089235;28;20290;-88
2023/09/16 05:49:09;;;;;;;2.22;1.63;;;33.20;28.80;;;;;;5098205;28;20203;-87
2023/09/16 05:51:39;;;;;;;5.60;1.48;;;33.20;29.00;;;;;;5087086;28;20199;-86
2023/09/16 05:54:12;;;;;;;1.92;1.80;;;33.30;29.00;;;;;;5074252;28;20180;-86
2023/09/16 05:56:43;;;;;;;2.25;1.55;;;33.30;28.30;;;;;;5090987;28;20224;-86
2023/09/16 05:59:13;;;;;;;2.00;1.60;;;33.50;28.30;;;;;;5089090;28;20207;-87
2023/09/16 06:01:49;;;;;;;2.53;1.70;;;33.50;28.60;;;;;;5077728;28;20180;-87
2023/09/16 06:04:19;;;;;;;2.17;1.67;;;33.50;27.90;;;;;;5095744;28;20191;-87
2023/09/16 06:06:54;;;;;;;4.32;1.95;;;33.60;28.10;;;;;;5095363;28;20571;-87
2023/09/16 06:09:25;;;;;;;2.15;1.90;;;33.50;28.20;;;;;;5091447;28;20259;-89
2023/09/16 06:11:56;;;;;;;5.07;1.92;;;33.50;28.10;;;;;;5075966;28;20685;-87
2023/09/16 06:14:27;;;;;;;2.70;1.90;;;33.40;28.00;;;;;;5075450;28;20631;-86
2023/09/16 06:17:02;;;;;;;3.17;1.77;;;33.30;27.90;;;;;;5082638;28;20515;-88
2023/09/16 06:19:33;;;;;;;1.85;1.75;;;33.50;27.80;;;;;;5072991;28;20195;-87
2023/09/16 06:22:04;;;;;;;2.08;1.73;;;33.50;28.30;;;;;;5072674;28;20192;-87
2023/09/16 06:24:37;;;;;;;2.45;1.77;;;33.70;27.80;;;;;;5069048;28;20207;-86
2023/09/16 06:27:08;;;;;;;2.83;1.70;;;33.80;27.70;;;;;;5071044;28;20224;-86
2023/09/16 06:29:39;;;;;;;2.67;1.60;;;33.90;28.00;;;;;;5080149;28;20223;-86
2023/09/16 06:32:11;;;;;;;4.50;1.80;;;34.10;28.30;;;;;;5075452;28;20207;-86
2023/09/16 06:34:42;;;;;;;3.10;1.80;;;34.20;28.50;;;;;;5079865;28;20575;-86
2023/09/16 06:37:13;;;;;;;2.88;1.88;;;34.30;28.00;;;;;;5080380;28;20206;-87
2023/09/16 06:39:45;;;;;;;3.28;1.90;;;34.40;28.00;;;;;;5081632;28;20188;-81
2023/09/16 06:42:16;;;;;;;2.28;1.67;;;34.40;28.10;;;;;;5087234;28;20207;-86
2023/09/16 06:44:52;;;;;;;4.13;1.85;;;34.60;28.10;;;;;;5086963;28;20203;-86
2023/09/16 06:47:28;;;;;;;3.10;1.70;;;34.60;27.50;;;;;;5080099;28;20223;-85
2023/09/16 06:50:01;;;;;;;4.93;1.88;;;34.40;27.40;;;;;;5090431;28;20230;-86
2023/09/16 06:52:32;;;;;;;2.03;1.80;;;34.20;27.50;;;;;;5086150;28;20199;-86
2023/09/16 06:55:02;;;;;;;2.70;1.90;;;34.00;27.40;;;;;;5085065;28;20666;-86
2023/09/16 06:57:33;;;;;;;2.30;1.70;;;33.80;27.70;;;;;;5070885;28;20224;-85
2023/09/16 07:00:04;;;;;;;3.53;2.08;;;33.50;27.90;;;;;;5071072;28;20658;-86
2023/09/16 07:02:37;;;;;;;2.10;1.90;;;33.40;27.90;;;;;;5071054;28;20198;-86
2023/09/16 07:05:07;;;;;;;5.55;1.92;;;33.00;27.70;;;;;;5079543;28;20685;-87
2023/09/16 07:07:38;;;;;;;4.35;2.10;;;32.80;28.30;;;;;;5076839;28;20207;-87
2023/09/16 07:10:10;;;;;;;3.70;2.38;;;32.40;28.60;;;;;;5084299;28;20571;-87
2023/09/16 07:12:41;;;;;;;8.80;2.95;;;32.20;28.80;;;;;;5070605;28;20216;-88
2023/09/16 07:15:12;;;;;;;3.83;2.50;;;32.00;28.60;;;;;;5072860;28;20196;-89
2023/09/16 07:17:45;;;;;;;3.67;2.30;;;31.80;28.90;;;;;;5076002;28;20689;-87
2023/09/16 07:20:16;;;;;;;5.88;2.33;;;31.60;29.20;;;;;;5085336;28;20192;-88
2023/09/16 07:22:47;;;;;;;2.30;1.80;;;31.40;29.50;;;;;;5079517;28;20581;-89
2023/09/16 07:25:18;;;;;;;1.77;1.65;;;31.20;29.70;;;;;;5083934;28;20196;-88
2023/09/16 07:27:48;;;;;;;2.78;1.77;;;31.00;29.90;;;;;;5091451;28;20616;-89
2023/09/16 07:30:19;;;;;;;4.47;2.10;;;30.80;30.50;;;;;;5092157;28;20223;-88
2023/09/16 07:32:52;;;;;;;2.33;1.83;;;30.70;30.60;;;;;;5074979;28;20211;-88
2023/09/16 07:35:23;;;;;;;1.98;1.83;;;30.50;30.90;;;;;;5075216;28;20230;-91
2023/09/16 07:37:54;;;;;;;3.97;2.25;;;30.40;31.30;;;;;;5080927;28;20199;-87
2023/09/16 07:40:25;;;;;;;3.72;2.30;;;30.40;30.80;;;;;;5094658;28;20225;-87
2023/09/16 07:42:55;;;;;;;5.45;2.00;;;30.30;31.10;;;;;;5085088;28;20196;-87
2023/09/16 07:45:26;;;;;;;7.18;2.50;;;30.10;31.50;;;;;;5097242;28;20686;-86
2023/09/16 07:47:59;;;;;;;2.55;2.13;;;30.10;31.50;;;;;;5083822;28;20286;-85
2023/09/16 07:50:30;;;;;;;2.60;1.83;;;29.90;31.60;;;;;;5094604;28;20656;-87
2023/09/16 07:53:01;;;;;;;3.70;2.15;;;29.90;31.70;;;;;;5091917;28;20216;-87
2023/09/16 07:55:31;;;;;;;2.65;1.88;;;29.80;31.80;;;;;;5081423;28;20200;-87
2023/09/16 07:58:02;;;;;;;3.53;2.20;;;29.70;32.10;;;;;;5076330;28;20216;-87
2023/09/16 08:00:33;;;;;;;3.45;2.40;;;29.70;32.10;;;;;;5086617;28;20298;-86
2023/09/16 08:03:07;;;;;;;2.30;2.03;;;29.60;31.90;;;;;;5090461;28;20203;-87
2023/09/16 08:05:38;;;;;;;2.85;2.05;;;29.50;31.80;;;;;;5074586;28;20188;-86
2023/09/16 08:08:09;;;;;;;2.65;2.10;;;29.50;32.10;;;;;;5074398;28;20283;-86
2023/09/16 08:10:39;;;;;;;2.25;1.90;;;29.50;31.30;;;;;;5074078;28;20221;-88
2023/09/16 08:13:10;;;;;;;4.53;2.50;;;29.40;31.50;;;;;;5074358;28;20199;-88
2023/09/16 08:15:41;;;;;;;2.80;2.40;;;29.30;32.20;;;;;;5075358;28;20196;-87
2023/09/16 08:18:14;;;;;;;2.55;2.17;;;29.30;32.50;;;;;;5081555;28;20198;-87
2023/09/16 08:20:45;;;;;;;4.70;2.58;;;29.20;32.20;;;;;;5095367;28;20225;-88
2023/09/16 08:23:16;;;;;;;3.92;2.05;;;29.10;32.70;;;;;;5077372;28;20678;-87
2023/09/16 08:25:47;;;;;;;3.42;2.03;;;29.00;32.90;;;;;;5083935;28;20276;-87
2023/09/16 08:28:18;;;;;;;4.50;2.35;;;29.00;32.60;;;;;;5087658;28;20227;-87
2023/09/16 08:30:49;;;;;;;2.72;2.08;;;29.00;32.50;;;;;;5079150;28;20225;-88
2023/09/16 08:33:21;;;;;;;3.45;2.35;;;29.00;32.70;;;;;;5083220;28;20275;-87
2023/09/16 08:35:52;;;;;;;3.28;2.20;;;28.90;32.50;;;;;;5092809;28;20202;-89
2023/09/16 08:38:23;;;;;;;3.80;2.03;;;28.90;32.50;;;;;;5082441;28;20195;-90
2023/09/16 08:41:01;;;;;;;10.43;4.38;;;28.90;32.40;;;;;;5095021;28;20203;-88
2023/09/16 08:43:39;;;;;;;6.45;3.95;;;28.90;32.40;;;;;;5095469;28;20187;-88
2023/09/16 08:46:17;;;;;;;4.38;3.05;;;29.00;32.30;;;;;;5077234;28;20218;-88
2023/09/16 08:48:58;;;;;;;5.00;2.28;;;29.00;32.40;;;;;;5074819;28;20216;-88
2023/09/16 08:51:32;;;;;;;7.40;3.75;;;29.00;32.60;;;;;;5097946;28;20234;-87
2023/09/16 08:54:04;;;;;;;4.72;2.38;;;28.90;32.90;;;;;;5082755;28;20225;-86
2023/09/16 08:56:35;;;;;;;4.05;3.00;;;28.90;33.10;;;;;;5072931;28;20698;-88
2023/09/16 08:59:06;;;;;;;5.07;3.03;;;28.80;33.30;;;;;;5074299;28;20662;-88
2023/09/16 09:01:36;;;;;;;5.18;3.22;;;28.70;33.20;;;;;;5074602;28;20602;-88
2023/09/16 09:04:11;;;;;;;5.53;2.50;;;28.70;33.40;;;;;;5080610;28;20686;-88
2023/09/16 09:06:42;;;;;;;4.47;2.47;;;28.70;33.90;;;;;;5093355;28;20198;-86
2023/09/16 09:09:13;;;;;;;3.35;2.20;;;28.50;34.10;;;;;;5093454;28;20214;-88
2023/09/16 09:11:44;;;;;;;3.20;2.65;;;28.30;34.80;;;;;;5090144;28;20548;-87
2023/09/16 09:14:16;;;;;;;4.07;2.53;;;28.20;35.60;;;;;;5072414;28;20199;-88
2023/09/16 09:16:48;;;;;;;3.75;2.38;;;28.00;36.30;;;;;;5072638;28;20196;-87
2023/09/16 09:19:23;;;;;;;3.35;2.95;;;27.90;37.20;;;;;;5080643;28;20203;-87
2023/09/16 09:21:56;;;;;;;7.07;4.80;;;27.70;37.70;;;;;;5071758;28;20740;-88
2023/09/16 09:24:27;;;;;;;14.63;12.27;;;27.60;38.10;;;;;;5072275;28;20211;-87
2023/09/16 09:26:57;;;;;;;26.65;23.95;;;27.40;38.50;;;;;;5072057;28;20229;-87
2023/09/16 09:29:28;;;;;;;20.67;18.58;;;27.30;39.10;;;;;;5071863;28;20228;-88
2023/09/16 09:31:59;;;;;;;15.80;14.20;;;27.20;39.30;;;;;;5076034;28;20192;-86
2023/09/16 09:34:33;;;;;;;10.10;8.05;;;27.10;39.30;;;;;;5080910;28;20199;-87
2023/09/16 09:37:04;;;;;;;4.90;4.13;;;26.90;39.60;;;;;;5073603;28;20200;-87
2023/09/16 09:39:35;;;;;;;3.40;3.00;;;26.80;40.20;;;;;;5076542;28;20188;-86
2023/09/16 09:42:05;;;;;;;5.65;3.50;;;26.70;40.70;;;;;;5075825;28;20271;-88
2023/09/16 09:44:37;;;;;;;4.60;3.40;;;26.60;41.40;;;;;;5075667;28;20199;-86
2023/09/16 09:47:08;;;;;;;5.68;2.80;;;26.50;41.60;;;;;;5076240;28;20207;-87
2023/09/16 09:49:41;;;;;;;3.83;2.72;;;26.40;41.90;;;;;;5075747;28;20223;-86
2023/09/16 09:52:13;;;;;;;3.38;2.50;;;26.30;42.70;;;;;;5081150;28;20187;-87
2023/09/16 09:54:44;;;;;;;3.88;2.50;;;26.20;43.20;;;;;;5104711;28;20218;-84
2023/09/16 09:57:15;;;;;;;3.97;2.60;;;26.20;43.30;;;;;;5106367;28;20717;-87
2023/09/16 09:59:46;;;;;;;3.08;2.33;;;26.10;43.40;;;;;;5096095;28;20196;-85
2023/09/16 10:02:17;;;;;;;5.88;3.97;;;26.00;43.40;;;;;;5090818;28;20198;-86
2023/09/16 10:04:51;;;;;;;6.47;3.60;;;25.90;43.10;;;;;;5099004;28;20191;-88
2023/09/16 10:07:23;;;;;;;5.35;3.50;;;25.90;43.40;;;;;;5080243;28;20196;-87
2023/09/16 10:09:53;;;;;;;5.05;3.20;;;25.80;43.30;;;;;;5075694;28;20229;-87
2023/09/16 10:12:24;;;;;;;3.05;2.70;;;25.80;43.40;;;;;;5081596;28;20607;-87
2023/09/16 10:14:55;;;;;;;4.05;2.60;;;25.70;43.20;;;;;;5079124;28;20192;-87
2023/09/16 10:17:26;;;;;;;3.45;2.88;;;25.60;43.10;;;;;;5096225;28;20568;-87
2023/09/16 10:19:59;;;;;;;6.30;2.78;;;25.60;43.50;;;;;;5079761;28;20196;-87
2023/09/16 10:22:30;;;;;;;6.07;4.20;;;25.50;43.40;;;;;;5079012;28;20188;-87
2023/09/16 10:25:01;;;;;;;5.63;4.65;;;25.50;42.80;;;;;;5080546;28;20745;-84
2023/09/16 10:27:42;;;;;;;4.68;4.10;;;25.50;42.80;;;;;;5077892;28;20239;-85
2023/09/16 10:30:15;;;;;;;5.13;3.40;;;25.40;42.90;;;;;;5096892;28;20719;-86
2023/09/16 10:32:47;;;;;;;4.13;3.38;;;25.40;43.10;;;;;;5094615;28;20203;-86
2023/09/16 10:35:21;;;;;;;6.22;4.95;;;25.30;43.60;;;;;;5088608;28;20200;-85
2023/09/16 10:37:54;;;;;;;7.43;6.00;;;25.30;44.00;;;;;;5083704;28;20198;-85
2023/09/16 10:40:25;;;;;;;6.90;4.85;;;25.30;44.20;;;;;;5082310;28;20214;-86
2023/09/16 10:42:56;;;;;;;7.90;4.07;;;25.20;45.30;;;;;;5073181;28;20187;-85
2023/09/16 10:45:29;;;;;;;5.00;3.80;;;25.20;46.80;;;;;;5075705;28;20199;-85
2023/09/16 10:48:01;;;;;;;6.55;3.53;;;25.20;49.80;;;;;;5075742;28;20215;-86
2023/09/16 10:50:36;;;;;;;6.68;3.47;;;25.10;51.90;;;;;;5087566;28;20221;-85
2023/09/16 10:53:10;;;;;;;6.18;3.30;;;25.00;52.40;;;;;;5096020;28;20194;-86
2023/09/16 10:55:47;;;;;;;7.10;3.72;;;24.90;53.00;;;;;;5095180;28;20194;-85
2023/09/16 10:58:24;;;;;;;7.18;3.85;;;24.80;54.80;;;;;;5096531;28;20218;-85
2023/09/16 11:00:56;;;;;;;7.50;4.30;;;24.70;56.30;;;;;;5096269;28;20243;-85
2023/09/16 11:03:32;;;;;;;16.17;9.10;;;24.70;58.20;;;;;;5083835;28;20187;-86
2023/09/16 11:06:05;;;;;;;19.40;10.00;;;24.60;60.90;;;;;;5095401;28;20195;-86
2023/09/16 11:08:36;;;;;;;14.55;8.15;;;24.60;65.20;;;;;;5096303;28;20245;-86
2023/09/16 11:11:07;;;;;;;8.05;5.22;;;24.50;65.90;;;;;;5105093;28;20233;-85
2023/09/16 11:13:38;;;;;;;6.72;4.60;;;24.50;64.10;;;;;;5100493;28;20191;-86
2023/09/16 11:16:17;;;;;;;7.80;4.35;;;24.50;63.50;;;;;;5094893;28;20227;-86
2023/09/16 11:18:51;;;;;;;6.80;3.67;;;24.40;62.90;;;;;;5085284;28;20193;-86
2023/09/16 11:21:25;;;;;;;7.00;3.55;;;24.40;59.80;;;;;;5094278;28;20191;-86
2023/09/16 11:23:56;;;;;;;4.35;3.10;;;24.40;58.20;;;;;;5087680;28;20188;-86
2023/09/16 11:26:27;;;;;;;7.07;3.30;;;24.40;55.70;;;;;;5080684;28;20593;-86
2023/09/16 11:28:58;;;;;;;5.47;2.75;;;24.40;53.40;;;;;;5078801;28;20196;-87
2023/09/16 11:31:29;;;;;;;4.22;2.70;;;24.40;53.10;;;;;;5089348;28;20220;-86
2023/09/16 11:34:05;;;;;;;3.90;3.20;;;24.30;52.30;;;;;;5098847;28;20194;-86
2023/09/16 11:36:39;;;;;;;3.22;2.67;;;24.40;51.00;;;;;;5102565;28;20201;-87
2023/09/16 11:39:39;;;;;;;4.45;2.90;;;24.40;50.10;;;;;;5082402;28;20211;-84
2023/09/16 11:42:12;;;;;;;3.50;2.92;;;24.40;49.20;;;;;;5092987;28;20267;-86
2023/09/16 11:44:46;;;;;;;5.30;2.95;;;24.50;48.80;;;;;;5094419;28;20202;-85
2023/09/16 11:47:17;;;;;;;5.53;3.17;;;24.50;48.20;;;;;;5100817;28;20200;-86
2023/09/16 11:49:48;;;;;;;4.13;3.17;;;24.50;48.10;;;;;;5101079;28;20219;-86
2023/09/16 11:52:21;;;;;;;6.28;3.40;;;24.50;47.70;;;;;;5087381;28;20195;-86
2023/09/16 11:54:56;;;;;;;4.80;3.65;;;24.50;47.60;;;;;;5080993;28;20194;-86
2023/09/16 11:57:28;;;;;;;3.83;2.88;;;24.50;47.20;;;;;;5087464;28;20215;-86
2023/09/16 12:00:00;;;;;;;3.83;3.08;;;24.50;46.80;;;;;;5087224;28;20200;-87
2023/09/16 12:02:35;;;;;;;3.92;3.20;;;24.60;46.70;;;;;;5088569;28;20180;-82
2023/09/16 12:05:07;;;;;;;5.25;2.80;;;24.60;46.30;;;;;;5095811;28;20188;-86
2023/09/16 12:07:41;;;;;;;3.08;2.70;;;24.60;46.20;;;;;;5081574;28;20203;-86
2023/09/16 12:10:14;;;;;;;3.65;2.90;;;24.60;46.20;;;;;;5083084;28;20220;-85
2023/09/16 12:12:45;;;;;;;3.75;2.78;;;24.70;46.30;;;;;;5080976;28;20188;-85
2023/09/16 12:15:17;;;;;;;6.75;2.80;;;24.60;46.40;;;;;;5081695;28;20657;-86
2023/09/16 12:17:48;;;;;;;3.05;2.60;;;24.60;46.40;;;;;;5089710;28;20200;-86
2023/09/16 12:20:19;;;;;;;3.38;2.53;;;24.60;46.00;;;;;;5078479;28;20663;-87
2023/09/16 12:22:55;;;;;;;3.38;2.53;;;24.60;46.10;;;;;;5078140;28;20200;-87
2023/09/16 12:25:29;;;;;;;5.20;2.53;;;24.60;46.00;;;;;;5080349;28;20286;-87
2023/09/16 12:27:59;;;;;;;3.45;2.55;;;24.70;46.30;;;;;;5079767;28;20303;-86
2023/09/16 12:30:30;;;;;;;2.47;2.28;;;24.60;46.30;;;;;;5080208;28;20258;-87
2023/09/16 12:33:03;;;;;;;3.03;2.28;;;24.50;46.60;;;;;;5080439;28;20188;-86
2023/09/16 12:35:39;;;;;;;3.55;2.45;;;24.50;46.40;;;;;;5091858;28;20192;-86
2023/09/16 12:38:17;;;;;;;5.05;2.60;;;24.50;46.70;;;;;;5077177;28;20213;-87
2023/09/16 12:40:50;;;;;;;2.97;2.50;;;24.50;46.60;;;;;;5079983;28;20255;-87
2023/09/16 12:43:26;;;;;;;6.72;2.42;;;24.50;46.60;;;;;;5077435;28;20198;-85
2023/09/16 12:46:04;;;;;;;3.70;2.35;;;24.50;46.30;;;;;;5094588;28;20191;-86
2023/09/16 12:48:36;;;;;;;4.85;2.45;;;24.40;46.50;;;;;;5073576;28;20733;-86
2023/09/16 12:51:07;;;;;;;3.80;2.50;;;24.40;46.40;;;;;;5082164;28;20238;-85
2023/09/16 12:53:41;;;;;;;3.60;2.42;;;24.40;46.30;;;;;;5092614;28;20206;-86
2023/09/16 12:56:12;;;;;;;4.22;2.25;;;24.40;46.30;;;;;;5073508;28;20263;-86
2023/09/16 12:58:47;;;;;;;3.42;2.20;;;24.50;45.60;;;;;;5090259;28;20245;-86
2023/09/16 13:01:23;;;;;;;3.55;2.13;;;24.50;45.60;;;;;;5093363;28;20183;-86
2023/09/16 13:03:55;;;;;;;3.40;2.28;;;24.50;45.40;;;;;;5100622;28;20210;-86
2023/09/16 13:06:26;;;;;;;3.80;2.20;;;24.50;45.30;;;;;;5088430;28;20682;-87
2023/09/16 13:09:00;;;;;;;3.80;2.50;;;24.60;45.50;;;;;;5072735;28;20226;-86
2023/09/16 13:11:31;;;;;;;5.50;2.67;;;24.60;45.40;;;;;;5072233;28;20235;-87